• Join FlightAware (Why Join?)
  • Login
  • US Flag 
08:53PM EDT


 

Airport Tracker/Info


-or-


 

Live Flight TrackerFlight Track Log ✈ N496DA ✈ 09-May-2014 ✈ KSFB - KSFB

Flight Track Log - Related Links

Times and Time Zones

All times are in EDT time to prevent confusion due to time zone crossing. See the N496DA flight status page for this flight to view local times or setup timezone preferences in your user account.

Time Position Orientation Groundspeed Altitude Reporting Facility
EDT Latitude Longitude Course Direction KTS MPH feet Rate Location/Type
10:17AM 28.7833 -81.2167 24° Northeast 110 127 600  Level Orlando TRACON
10:18AM 28.8167 -81.2000 24° Northeast 110 127 1,400 600 Climbing Orlando TRACON
10:19AM 28.8333 -81.1667 60° Northeast 109 125 2,000 360 Climbing Orlando TRACON
10:20AM 28.8497 -81.1456 48° Northeast 122 140 2,100  Climbing Jacksonville Center
10:21AM 28.8700 -81.1072 59° Northeast 124 143 2,000 -60 Descending Jacksonville Center
10:22AM 28.8842 -81.0761 63° Northeast 119 137 2,000  Level Jacksonville Center
10:23AM 28.8983 -81.0403 66° East 119 137 2,000  Level Jacksonville Center
10:24AM 28.9186 -81.0092 53° Northeast 119 137 2,000 180 Level Jacksonville Center
10:25AM 28.9328 -80.9733 66° East 119 137 2,400 480 Climbing Jacksonville Center
10:26AM 28.9533 -80.9539 40° Northeast 131 151 3,000 300 Climbing Jacksonville Center
10:27AM 28.9889 -80.9483 North 148 170 3,000  Level Jacksonville Center
10:28AM 29.0286 -80.9525 355° North 137 158 3,100  Climbing Jacksonville Center
10:29AM 29.0661 -80.9542 358° North 140 161 3,000  Descending Jacksonville Center
10:30AM 29.1078 -80.9556 358° North 140 161 3,100  Climbing Jacksonville Center
10:31AM 29.1475 -80.9597 355° North 142 163 3,100  Level Jacksonville Center
10:32AM 29.1853 -80.9683 349° North 139 160 3,100  Level Jacksonville Center
10:33AM 29.2250 -80.9772 349° North 140 161 3,100  Level Jacksonville Center
10:34AM 29.2692 -80.9881 348° North 140 161 3,100  Level Jacksonville Center
10:35AM 29.3047 -80.9994 344° North 140 161 3,100  Level Jacksonville Center
10:36AM 29.3425 -81.0131 343° North 139 160 3,100 -120 Level Jacksonville Center
10:37AM 29.3844 -81.0242 347° North 142 163 2,900 -360 Descending Jacksonville Center
10:38AM 29.4139 -81.0497 323° Northwest 153 176 2,400 -540 Descending Jacksonville Center
10:39AM 29.4314 -81.0947 294° West 143 165 1,800 -420 Descending Jacksonville Center
10:40AM 29.4444 -81.1375 289° West 126 145 1,600 -60 Descending Jacksonville Center
10:41AM 29.4553 -81.1753 288° West 120 138 1,700  Climbing Jacksonville Center
10:42AM 29.4322 -81.1664 161° South 112 129 1,600 -60 Descending Jacksonville Center
10:43AM 29.4050 -81.1547 160° South 102 117 1,600  Level Jacksonville Center
10:44AM 29.3736 -81.1433 162° South 108 124 1,600 -60 Level Jacksonville Center
10:45AM 29.3483 -81.1319 159° South 104 120 1,500 -540 Descending Jacksonville Center
10:46AM 29.3233 -81.1253 167° South 97 112 600 -420 Descending Jacksonville Center
10:47AM 29.3000 -81.1161 161° South 93 107 800 420 Climbing Jacksonville Center
10:48AM 29.2814 -81.1283 210° Southwest 114 131 1,500 300 Climbing Jacksonville Center
10:49AM 29.2861 -81.1689 278° West 136 157 1,500  Level Jacksonville Center
10:50AM 29.2931 -81.2092 281° West 131 151 1,500 240 Level Jacksonville Center
10:51AM 29.2808 -81.2428 247° West 114 131 2,100 540 Climbing Jacksonville Center
10:52AM 29.2625 -81.2786 240° Southwest 109 125 2,700 420 Climbing Jacksonville Center
10:54AM 29.2353 -81.2672 160° South 101 116 3,000 240 Climbing Jacksonville Center
10:54AM 29.2100 -81.2533 154° Southeast 111 128 3,200 480 Climbing Jacksonville Center
10:56AM 29.1853 -81.2633 199° South 95 109 4,000 360 Climbing Jacksonville Center
10:56AM 29.1603 -81.2781 207° Southwest 119 137 4,000  Level Jacksonville Center
10:57AM 29.1333 -81.2975 212° Southwest 113 130 4,100  Climbing Jacksonville Center
10:58AM 29.1067 -81.3169 213° Southwest 113 130 4,000 -60 Descending Jacksonville Center
10:59AM 29.0836 -81.3244 196° South 106 122 4,000  Level Jacksonville Center
11:01AM 29.0503 -81.3178 170° South 101 116 4,000  Level Jacksonville Center
11:02AM 29.0208 -81.3089 165° South 106 122 4,000  Level Jacksonville Center
11:02AM 28.9936 -81.3069 176° South 109 125 4,000  Level Jacksonville Center
11:03AM 28.9689 -81.3286 217° Southwest 111 128 4,100  Climbing Jacksonville Center
11:04AM 28.9442 -81.3481 215° Southwest 112 129 4,000 -360 Descending Jacksonville Center
11:05AM 28.9194 -81.3792 228° Southwest 144 166 3,400 -540 Descending Jacksonville Center
11:07AM 28.9075 -81.4197 251° West 132 152 3,000 -180 Descending Jacksonville Center
11:08AM 28.9000 -81.4667 260° West 123 142 3,000  Level Orlando TRACON
11:09AM 28.8833 -81.5167 249° West 114 131 3,000  Level Orlando TRACON
11:10AM 28.8667 -81.5167 180° South 106 122 3,100  Climbing Orlando TRACON
11:11AM 28.8333 -81.5333 204° Southwest 113 130 3,100 -300 Level Orlando TRACON
11:12AM 28.8000 -81.5167 156° South 128 147 2,600 -540 Descending Orlando TRACON
11:13AM 28.7833 -81.4833 120° Southeast 110 127 2,100 -300 Descending Orlando TRACON
11:14AM 28.7833 -81.4667 90° East 96 110 2,100 -60 Level Orlando TRACON
11:15AM 28.7833 -81.4167 90° East 108 124 2,000  Descending Orlando TRACON
11:16AM 28.7833 -81.3833 90° East 115 132 2,100 -120 Climbing Orlando TRACON
11:17AM 28.7833 -81.3500 90° East 102 117 1,800 -420 Descending Orlando TRACON
11:18AM 28.7833 -81.3167 90° East 92 106 1,300 -540 Descending Orlando TRACON